Sandy Lake Airport
CZSJ : now visible

Airfield :











YOU CAN JOIN US ON...

 
LOGIN :

Register | Disclaimer

   EN    FR    IT 

 









Legend :    VFR   Marginal VFR   IFR   Intensive IFR   Very Intensive IFR
Visi :
Ceiling :
>= 8 km
>= 3000ft
5 to 8 km
1000 to 3000 ft
1500m to 5 km
500 to 1000 ft
800 to 1500m
200 to 500 ft
< 800m
< 200 ft
Symbols :   Thunderstorms  Fog  Heavy snow  Heavy precipitations  Wind > 20 kt






- Airport Elevation : 951 ft
- IATA code : ZSJ


CZSJ - Sandy Lake

CURRENT METAR :
  • 042100Z AUTO 06005KT 020V100 9SM OVC012 12/11 A2962 RMK SLP038 DENSITY ALT 1200FT

EXPIRED METARs :
  • 042007Z AUTO 08010KT 9SM BKN010 12/11 A2960 RMK SLP034 DENSITY ALT 1200FT
  • 041924Z AUTO 09013KT 9SM BKN008 BKN015 OVC021 11/10 A2960 RMK SLP034 DENSITY ALT 1100FT
  • 041920Z AUTO 08011G16KT 9SM -RA BKN008 BKN019 OVC026 11/10 A2960 RMK SLP034 DENSITY ALT 1000FT
  • 041900Z AUTO 09008G15KT 050V120 9SM -RA BKN006 BKN018 BKN025 OVC080 11/10 A2960 RMK SLP034 DENSITY ALT 1000FT
  • 041856Z AUTO 07010G15KT 9SM -RA SCT006 BKN018 BKN025 OVC080 11/10 A2960 RMK SLP033 DENSITY ALT 1000FT

TAF AMD TAF CZSJ
Valid from the 04 at 16:00 until the 04 at 22:00 UTC


041609Z 0416/0422 07010KT P6SM BKN010 OVC030
TEMPO 0416/0422 5SM -SHRA BR OVC007
PROB30 0419/0422 VRB15G25KT 2SM TSRA BR OVC007CB RMK FCST BASED ON AUTO OBS. NXT FCST WILL BE ISSUED AT 050945Z
CZWG FIR / North America



MET'MAP, your aeronautical weather chart ! - Copyright ORBIFLY December 2007 - Disclaimer

ORBIFLY MET'MAP TEAM :

Programming & Development : Alexandra Zaïnal
Concept & original design : Baudouin d'Aumeries
Assistance for programming : Marc-Olivier Méhu
Technical & hardware support : Manuel Goepfert

Contact : metmap@orbifly.com




SOURCES & CREDITS :

   NOAA       Earth
Advisory